createdAt,value
2022-10-21T00:00:15.839Z,97.21
2022-10-21T00:02:37.524Z,96.38
2022-10-21T00:04:59.157Z,97.19
2022-10-21T00:07:20.620Z,97.93
2022-10-21T00:09:42.192Z,97.47
2022-10-21T00:12:03.784Z,98.40
2022-10-21T00:14:25.254Z,99.43
2022-10-21T00:16:46.826Z,98.66
2022-10-21T00:19:08.329Z,99.18
2022-10-21T00:21:29.821Z,100.00
2022-10-21T00:23:51.404Z,99.74
2022-10-21T00:26:14.621Z,100.00
2022-10-21T00:28:36.288Z,99.80
2022-10-21T00:30:58.380Z,100.00
2022-10-21T00:33:20.094Z,99.57
2022-10-21T00:35:41.618Z,99.02
2022-10-21T00:38:03.336Z,99.90
2022-10-21T00:40:24.826Z,99.72
2022-10-21T00:42:46.994Z,100.00
2022-10-21T00:45:08.769Z,100.00
2022-10-21T00:47:31.958Z,100.00
2022-10-21T00:50:00.038Z,100.00
2022-10-21T00:52:23.083Z,100.00
2022-10-21T00:54:46.914Z,100.00
2022-10-21T00:57:09.324Z,100.00
2022-10-21T00:59:38.763Z,100.00
2022-10-21T01:02:00.330Z,100.00
2022-10-21T01:04:22.615Z,100.00
2022-10-21T01:06:45.317Z,100.00
2022-10-21T01:09:07.334Z,100.00
2022-10-21T01:11:34.079Z,99.96
2022-10-21T01:14:13.578Z,98.79
2022-10-21T01:17:26.464Z,98.75
2022-10-21T01:20:03.137Z,99.48
2022-10-21T01:23:10.046Z,100.00
2022-10-21T01:25:46.626Z,100.00
2022-10-21T01:28:29.219Z,100.00
2022-10-21T01:30:55.752Z,100.00
2022-10-21T01:33:39.504Z,100.00
2022-10-21T01:36:13.669Z,99.15
2022-10-21T01:38:49.610Z,99.35
2022-10-21T01:41:22.867Z,99.80
2022-10-21T01:43:57.479Z,100.00
2022-10-21T01:46:50.593Z,100.00
2022-10-21T01:49:28.110Z,100.00
2022-10-21T01:51:52.216Z,100.00
2022-10-21T01:54:20.795Z,100.00
2022-10-21T01:56:44.642Z,100.00
2022-10-21T01:59:10.708Z,100.00
2022-10-21T02:01:35.594Z,100.00
2022-10-21T02:04:01.598Z,100.00
2022-10-21T02:06:23.373Z,100.00
2022-10-21T02:08:45.150Z,100.00
2022-10-21T02:11:08.528Z,100.00
2022-10-21T02:13:36.072Z,100.00
2022-10-21T02:16:02.193Z,100.00
2022-10-21T02:18:25.620Z,100.00
2022-10-21T02:20:51.206Z,100.00
2022-10-21T02:23:18.521Z,100.00
2022-10-21T02:25:42.889Z,100.00
2022-10-21T02:28:04.967Z,100.00
2022-10-21T02:30:32.629Z,100.00
2022-10-21T02:33:07.455Z,100.00
2022-10-21T02:35:46.719Z,100.00
2022-10-21T02:38:28.963Z,99.42
2022-10-21T02:40:55.725Z,98.92
2022-10-21T02:43:30.632Z,97.87
2022-10-21T02:45:55.044Z,97.90
2022-10-21T02:48:16.641Z,97.88
2022-10-21T02:50:38.150Z,99.21
2022-10-21T02:52:59.726Z,99.68
2022-10-21T02:55:21.397Z,100.00
2022-10-21T02:57:42.871Z,100.00
2022-10-21T03:00:05.999Z,100.00
2022-10-21T03:02:27.479Z,100.00
2022-10-21T03:04:48.991Z,100.00
2022-10-21T03:07:10.452Z,100.00
2022-10-21T03:09:31.990Z,100.00
2022-10-21T03:11:53.467Z,100.00
2022-10-21T03:14:14.953Z,100.00
2022-10-21T03:16:36.487Z,100.00
2022-10-21T03:18:58.000Z,100.00
2022-10-21T03:21:19.626Z,100.00
2022-10-21T03:23:41.123Z,99.41
2022-10-21T03:26:02.615Z,100.00
2022-10-21T03:28:24.155Z,100.00
2022-10-21T03:30:45.676Z,100.00
2022-10-21T03:33:07.246Z,100.00
2022-10-21T03:35:28.729Z,100.00
2022-10-21T03:37:50.327Z,100.00
2022-10-21T03:40:12.515Z,100.00
2022-10-21T03:42:34.128Z,100.00
2022-10-21T03:44:55.602Z,99.83
2022-10-21T03:47:17.104Z,99.80
2022-10-21T03:49:38.597Z,98.65
2022-10-21T03:52:00.132Z,98.45
2022-10-21T03:54:21.694Z,100.00
2022-10-21T03:56:43.278Z,100.00
2022-10-21T03:59:04.787Z,100.00
2022-10-21T04:01:26.799Z,100.00
2022-10-21T04:03:48.318Z,100.00
2022-10-21T04:06:09.814Z,100.00
2022-10-21T04:08:31.341Z,100.00
2022-10-21T04:10:52.914Z,100.00
2022-10-21T04:13:14.770Z,100.00
2022-10-21T04:15:36.269Z,100.00
2022-10-21T04:17:57.816Z,100.00
2022-10-21T04:20:19.578Z,100.00
2022-10-21T04:22:41.452Z,99.83
2022-10-21T04:25:04.802Z,97.90
2022-10-21T04:27:26.570Z,98.52
2022-10-21T04:29:48.062Z,98.75
2022-10-21T04:32:09.878Z,98.87
2022-10-21T04:34:31.371Z,99.21
2022-10-21T04:36:52.843Z,99.16
2022-10-21T04:39:14.348Z,98.77
2022-10-21T04:41:36.245Z,100.00
2022-10-21T04:43:57.713Z,99.73
2022-10-21T04:46:20.873Z,100.00
2022-10-21T04:48:43.008Z,99.59
2022-10-21T04:51:04.609Z,99.35
2022-10-21T04:53:26.066Z,99.15
2022-10-21T04:55:52.379Z,98.93
2022-10-21T04:58:16.162Z,97.92
2022-10-21T05:00:39.689Z,97.62
2022-10-21T05:03:01.205Z,97.80
2022-10-21T05:05:22.687Z,96.91
2022-10-21T05:07:44.146Z,97.84
2022-10-21T05:10:06.156Z,97.63
2022-10-21T05:12:27.699Z,97.47
2022-10-21T05:14:49.229Z,96.20
2022-10-21T05:17:10.723Z,96.10
2022-10-21T05:19:32.683Z,95.89
2022-10-21T05:21:54.195Z,96.03
2022-10-21T05:24:16.491Z,95.64
2022-10-21T05:26:37.990Z,94.72
2022-10-21T05:28:59.709Z,93.76
2022-10-21T05:31:21.185Z,92.61
2022-10-21T05:33:42.641Z,92.47
2022-10-21T05:36:07.883Z,91.88
2022-10-21T05:38:29.701Z,91.83
2022-10-21T05:40:51.216Z,92.60
2022-10-21T05:43:12.695Z,91.14
2022-10-21T05:45:34.191Z,91.70
2022-10-21T05:47:55.696Z,91.70
2022-10-21T05:50:17.222Z,91.99
2022-10-21T05:52:40.004Z,91.63
2022-10-21T05:55:01.687Z,91.67
2022-10-21T05:57:23.200Z,91.71
2022-10-21T05:59:44.775Z,91.96
2022-10-21T06:02:06.694Z,92.10
2022-10-21T06:04:28.178Z,92.13
2022-10-21T06:06:49.741Z,94.18
2022-10-21T06:09:11.381Z,93.73
2022-10-21T06:11:33.081Z,94.93
2022-10-21T06:13:54.594Z,95.12
2022-10-21T06:16:16.770Z,94.87
2022-10-21T06:18:38.475Z,94.38
2022-10-21T06:21:00.132Z,93.92
2022-10-21T06:23:21.634Z,93.42
2022-10-21T06:25:44.629Z,94.05
2022-10-21T06:28:06.164Z,93.23
2022-10-21T06:30:27.735Z,93.87
2022-10-21T06:32:49.328Z,94.75
2022-10-21T06:35:10.825Z,93.91
2022-10-21T06:37:32.282Z,93.23
2022-10-21T06:39:53.786Z,94.33
2022-10-21T06:42:15.973Z,93.60
2022-10-21T06:44:37.487Z,93.04
2022-10-21T06:46:58.941Z,92.30
2022-10-21T06:49:20.655Z,92.96
2022-10-21T06:51:42.129Z,92.64
2022-10-21T06:54:03.767Z,92.32
2022-10-21T06:56:26.601Z,91.95
2022-10-21T06:58:50.072Z,91.81
2022-10-21T07:01:27.506Z,91.00
2022-10-21T07:03:56.124Z,90.58
2022-10-21T07:06:18.373Z,90.29
2022-10-21T07:08:53.918Z,91.03
2022-10-21T07:11:19.672Z,90.84
2022-10-21T07:13:41.449Z,91.04
2022-10-21T07:16:06.439Z,91.30
2022-10-21T07:18:28.658Z,89.77
2022-10-21T07:20:50.181Z,89.09
2022-10-21T07:23:11.658Z,88.96
2022-10-21T07:25:33.147Z,89.71
2022-10-21T07:27:54.678Z,88.79
2022-10-21T07:30:16.335Z,87.82
2022-10-21T07:32:37.810Z,87.22
2022-10-21T07:35:00.356Z,87.02
2022-10-21T07:37:21.824Z,87.34
2022-10-21T07:39:43.333Z,87.06
2022-10-21T07:42:04.822Z,87.46
2022-10-21T07:44:26.760Z,86.05
2022-10-21T07:46:49.857Z,85.51
2022-10-21T07:49:12.825Z,84.92
2022-10-21T07:51:34.343Z,85.73
2022-10-21T07:53:57.521Z,85.59
2022-10-21T07:56:31.299Z,84.85
2022-10-21T07:58:53.292Z,84.13
2022-10-21T08:01:16.345Z,85.42
2022-10-21T08:03:38.784Z,86.77
2022-10-21T08:06:00.363Z,86.58
2022-10-21T08:08:21.940Z,85.55
2022-10-21T08:10:43.899Z,86.26
2022-10-21T08:13:05.576Z,86.72
2022-10-21T08:15:27.088Z,86.44
2022-10-21T08:17:48.567Z,85.78
2022-10-21T08:20:10.656Z,86.23
2022-10-21T08:22:32.114Z,86.54
2022-10-21T08:24:53.604Z,85.69
2022-10-21T08:27:15.047Z,85.85
2022-10-21T08:29:39.174Z,86.06
2022-10-21T08:32:01.586Z,86.03
2022-10-21T08:34:23.759Z,86.30
2022-10-21T08:36:45.315Z,87.25
2022-10-21T08:39:06.980Z,86.61
2022-10-21T08:41:31.456Z,85.58
2022-10-21T08:43:54.459Z,86.41
2022-10-21T08:46:22.609Z,86.72
2022-10-21T08:48:49.053Z,86.87
2022-10-21T08:51:37.240Z,88.20
2022-10-21T08:54:05.882Z,87.73
2022-10-21T08:56:31.300Z,88.89
2022-10-21T08:58:52.973Z,89.03
2022-10-21T09:01:41.940Z,89.95
2022-10-21T09:04:24.010Z,88.87
2022-10-21T09:07:15.069Z,88.58
2022-10-21T09:09:45.336Z,88.43
2022-10-21T09:12:13.265Z,88.68
2022-10-21T09:15:12.230Z,86.78
2022-10-21T09:17:55.479Z,84.62
2022-10-21T09:20:39.513Z,83.66
2022-10-21T09:23:18.540Z,83.40
2022-10-21T09:25:48.592Z,83.20
2022-10-21T09:28:13.527Z,82.88
2022-10-21T09:30:35.126Z,83.27
2022-10-21T09:32:59.562Z,83.53
2022-10-21T09:35:21.075Z,83.21
2022-10-21T09:37:49.940Z,83.21
2022-10-21T09:40:30.180Z,83.43
2022-10-21T09:42:56.051Z,83.39
2022-10-21T09:45:23.061Z,81.91
2022-10-21T09:47:54.837Z,82.69
2022-10-21T09:50:18.003Z,82.25
2022-10-21T09:52:40.027Z,82.21
2022-10-21T09:55:03.428Z,83.02
2022-10-21T09:57:54.302Z,82.53
2022-10-21T10:00:15.907Z,83.06
2022-10-21T10:02:41.781Z,82.99
2022-10-21T10:05:40.160Z,82.73
2022-10-21T10:08:38.525Z,81.79
2022-10-21T10:11:09.303Z,81.82
2022-10-21T10:13:32.070Z,83.83
2022-10-21T10:15:53.535Z,86.28
2022-10-21T10:18:23.313Z,87.36
2022-10-21T10:20:44.789Z,88.51
2022-10-21T10:23:06.206Z,88.56
2022-10-21T10:25:31.869Z,87.28
2022-10-21T10:27:54.876Z,87.50
2022-10-21T10:30:17.099Z,88.74
2022-10-21T10:32:38.737Z,89.75
2022-10-21T10:35:05.892Z,89.94
2022-10-21T10:37:31.351Z,89.45
2022-10-21T10:39:56.974Z,89.21
2022-10-21T10:42:33.938Z,89.39
2022-10-21T10:44:59.610Z,90.73
2022-10-21T10:47:26.412Z,91.61
2022-10-21T10:49:50.612Z,92.00
2022-10-21T10:52:12.050Z,91.61
2022-10-21T10:54:34.066Z,90.95
2022-10-21T10:57:20.199Z,92.33
2022-10-21T11:00:07.705Z,92.21
2022-10-21T11:02:31.790Z,90.66
2022-10-21T11:05:16.951Z,90.06
2022-10-21T11:07:49.238Z,90.22
2022-10-21T11:10:29.012Z,88.49
2022-10-21T11:12:50.577Z,88.75
2022-10-21T11:15:15.513Z,88.82
2022-10-21T11:17:45.506Z,89.27
2022-10-21T11:20:14.608Z,90.12
2022-10-21T11:22:50.666Z,91.29
2022-10-21T11:25:27.071Z,90.91
2022-10-21T11:28:00.800Z,90.33
2022-10-21T11:30:29.883Z,91.59
2022-10-21T11:33:24.467Z,93.36
2022-10-21T11:35:57.708Z,92.06
2022-10-21T11:38:43.814Z,93.15
2022-10-21T11:41:19.700Z,92.89
2022-10-21T11:43:57.229Z,93.67
2022-10-21T11:46:40.020Z,92.64
2022-10-21T11:49:25.377Z,92.89
2022-10-21T11:51:57.431Z,92.95
2022-10-21T11:54:40.540Z,93.63
2022-10-21T11:57:32.386Z,92.64
2022-10-21T12:00:26.375Z,92.26
2022-10-21T12:03:25.056Z,92.21
2022-10-21T12:06:02.281Z,92.77
2022-10-21T12:08:34.381Z,91.90
2022-10-21T12:11:38.034Z,92.41
2022-10-21T12:14:22.787Z,92.36
2022-10-21T12:16:46.265Z,92.74
2022-10-21T12:19:13.225Z,92.73
2022-10-21T12:21:38.460Z,92.51
2022-10-21T12:24:38.678Z,93.07
2022-10-21T12:27:25.727Z,92.63
2022-10-21T12:29:52.601Z,93.00
2022-10-21T12:32:34.709Z,93.01
2022-10-21T12:34:56.572Z,92.93
2022-10-21T12:37:50.198Z,92.26
2022-10-21T12:40:13.998Z,93.00
2022-10-21T12:42:35.898Z,92.23
2022-10-21T12:44:57.442Z,91.77
2022-10-21T12:47:28.651Z,91.28
2022-10-21T12:50:15.110Z,91.32
2022-10-21T12:52:38.919Z,90.88
2022-10-21T12:55:04.087Z,90.89
2022-10-21T12:57:38.531Z,90.94
2022-10-21T13:00:22.134Z,90.81
2022-10-21T13:03:02.659Z,89.96
2022-10-21T13:05:36.354Z,90.32
2022-10-21T13:08:22.992Z,88.62
2022-10-21T13:11:07.358Z,89.13
2022-10-21T13:13:35.604Z,88.97
2022-10-21T13:15:57.365Z,89.11
2022-10-21T13:18:58.195Z,91.43
2022-10-21T13:21:40.040Z,91.34
2022-10-21T13:24:13.502Z,92.18
2022-10-21T13:26:49.957Z,93.27
2022-10-21T13:29:13.995Z,94.32
2022-10-21T13:31:37.900Z,94.01
2022-10-21T13:34:00.008Z,94.99
2022-10-21T13:36:43.674Z,93.80
2022-10-21T13:39:24.050Z,93.12
2022-10-21T13:41:45.958Z,92.47
2022-10-21T13:44:07.771Z,92.58
2022-10-21T13:46:43.559Z,92.49
2022-10-21T13:49:06.476Z,93.70
2022-10-21T13:51:34.811Z,95.04
2022-10-21T13:53:59.498Z,96.57
2022-10-21T13:56:30.122Z,96.76
2022-10-21T13:58:51.954Z,96.15
2022-10-21T14:01:21.795Z,96.02
2022-10-21T14:03:44.010Z,95.90
2022-10-21T14:06:08.734Z,94.36
2022-10-21T14:08:34.071Z,94.14
2022-10-21T14:11:19.869Z,95.20
2022-10-21T14:13:42.081Z,96.07
2022-10-21T14:16:05.092Z,97.54
2022-10-21T14:18:36.407Z,97.32
2022-10-21T14:21:00.603Z,97.54
2022-10-21T14:23:23.665Z,99.32
2022-10-21T14:25:49.154Z,99.83
2022-10-21T14:28:14.774Z,100.00
2022-10-21T14:30:37.197Z,100.00
2022-10-21T14:33:02.338Z,100.00
2022-10-21T14:35:27.602Z,100.00
2022-10-21T14:38:01.382Z,99.00
2022-10-21T14:40:33.199Z,99.18
2022-10-21T14:42:55.266Z,99.18
2022-10-21T14:45:23.823Z,99.56
2022-10-21T14:47:51.155Z,99.68
2022-10-21T14:50:19.517Z,100.00
2022-10-21T14:52:44.558Z,99.84
2022-10-21T14:55:15.155Z,99.13
2022-10-21T14:57:47.591Z,100.00
2022-10-21T15:00:29.117Z,100.00
2022-10-21T15:02:53.125Z,100.00
2022-10-21T15:05:29.460Z,100.00
2022-10-21T15:07:50.989Z,100.00
2022-10-21T15:10:16.500Z,100.00
2022-10-21T15:12:50.460Z,100.00
2022-10-21T15:15:54.109Z,100.00
2022-10-21T15:18:23.986Z,100.00
2022-10-21T15:20:56.743Z,100.00
2022-10-21T15:23:20.306Z,100.00
2022-10-21T15:25:42.073Z,100.00
2022-10-21T15:28:11.094Z,100.00
2022-10-21T15:30:35.348Z,100.00
2022-10-21T15:32:57.472Z,100.00
2022-10-21T15:35:21.908Z,100.00
2022-10-21T15:37:43.563Z,100.00
2022-10-21T15:40:05.600Z,100.00
2022-10-21T15:42:27.098Z,100.00
2022-10-21T15:44:50.164Z,100.00
2022-10-21T15:47:11.640Z,100.00
2022-10-21T15:49:36.411Z,100.00
2022-10-21T15:51:57.893Z,100.00
2022-10-21T15:54:20.722Z,100.00
2022-10-21T15:56:44.315Z,100.00
2022-10-21T15:59:05.791Z,100.00
2022-10-21T16:01:27.359Z,100.00
2022-10-21T16:03:48.935Z,100.00
2022-10-21T16:06:16.908Z,100.00
2022-10-21T16:08:38.463Z,100.00
2022-10-21T16:11:00.085Z,100.00
2022-10-21T16:13:21.648Z,100.00
2022-10-21T16:15:43.303Z,100.00
2022-10-21T16:18:12.602Z,100.00
2022-10-21T16:20:35.610Z,100.00
2022-10-21T16:23:00.525Z,100.00
2022-10-21T16:25:24.669Z,100.00
2022-10-21T16:28:01.708Z,100.00
2022-10-21T16:30:28.576Z,100.00
2022-10-21T16:32:51.234Z,100.00
2022-10-21T16:35:14.898Z,100.00
2022-10-21T16:37:36.559Z,100.00
2022-10-21T16:39:58.363Z,100.00
2022-10-21T16:42:19.831Z,100.00
2022-10-21T16:44:41.342Z,100.00
2022-10-21T16:47:03.460Z,100.00
2022-10-21T16:49:26.616Z,99.59
2022-10-21T16:51:48.644Z,99.35
2022-10-21T16:54:10.711Z,99.33
2022-10-21T16:56:32.203Z,99.54
2022-10-21T16:58:53.742Z,99.21
2022-10-21T17:01:21.114Z,99.18
2022-10-21T17:03:42.656Z,98.57
2022-10-21T17:06:04.258Z,98.47
2022-10-21T17:08:25.767Z,98.67
2022-10-21T17:10:47.281Z,96.88
2022-10-21T17:13:10.237Z,97.27
2022-10-21T17:15:31.805Z,97.77
2022-10-21T17:17:53.677Z,98.19
2022-10-21T17:20:15.278Z,97.93
2022-10-21T17:22:36.841Z,97.79
2022-10-21T17:24:58.532Z,97.90
2022-10-21T17:27:21.582Z,97.90
2022-10-21T17:29:43.156Z,97.56
2022-10-21T17:32:05.597Z,97.79
2022-10-21T17:34:30.260Z,97.42
2022-10-21T17:36:51.873Z,97.74
2022-10-21T17:39:13.400Z,98.05
2022-10-21T17:41:34.913Z,97.74
2022-10-21T17:43:56.697Z,97.97
2022-10-21T17:46:20.915Z,97.91
2022-10-21T17:48:42.410Z,98.13
2022-10-21T17:51:04.188Z,98.41
2022-10-21T17:53:27.328Z,97.91
2022-10-21T17:56:06.896Z,98.07
2022-10-21T17:58:28.993Z,98.15
2022-10-21T18:00:50.551Z,96.85
2022-10-21T18:03:12.038Z,96.33
2022-10-21T18:05:33.527Z,96.51
2022-10-21T18:07:55.669Z,96.60
2022-10-21T18:10:17.308Z,97.13
2022-10-21T18:12:39.018Z,98.28
2022-10-21T18:15:00.811Z,97.14
2022-10-21T18:17:22.371Z,96.53
2022-10-21T18:19:43.923Z,96.63
2022-10-21T18:22:05.388Z,97.20
2022-10-21T18:24:26.840Z,96.92
2022-10-21T18:26:48.320Z,96.83
2022-10-21T18:29:09.992Z,97.11
2022-10-21T18:31:34.022Z,96.79
2022-10-21T18:33:57.188Z,96.89
2022-10-21T18:36:18.780Z,96.69
2022-10-21T18:38:40.374Z,97.19
2022-10-21T18:41:26.042Z,97.14
2022-10-21T18:43:50.064Z,97.57
2022-10-21T18:46:11.612Z,97.07
2022-10-21T18:48:33.088Z,97.77
2022-10-21T18:50:54.647Z,97.98
2022-10-21T18:53:16.157Z,98.64
2022-10-21T18:55:40.090Z,98.58
2022-10-21T18:58:01.560Z,98.15
2022-10-21T19:00:23.111Z,98.70
2022-10-21T19:02:44.591Z,98.75
2022-10-21T19:05:06.339Z,98.94
2022-10-21T19:07:27.883Z,99.72
2022-10-21T19:09:49.433Z,100.00
2022-10-21T19:12:15.504Z,100.00
2022-10-21T19:14:38.977Z,99.64
2022-10-21T19:17:01.160Z,100.00
2022-10-21T19:19:22.646Z,99.64
2022-10-21T19:21:44.228Z,99.82
2022-10-21T19:24:06.192Z,100.00
2022-10-21T19:26:28.228Z,99.94
2022-10-21T19:28:50.557Z,99.52
2022-10-21T19:31:12.285Z,99.43
2022-10-21T19:33:33.944Z,99.34
2022-10-21T19:35:59.622Z,100.00
2022-10-21T19:38:39.676Z,99.46
2022-10-21T19:41:08.196Z,99.26
2022-10-21T19:43:29.807Z,100.00
2022-10-21T19:45:53.127Z,100.00
2022-10-21T19:48:16.359Z,100.00
2022-10-21T19:50:45.536Z,100.00
2022-10-21T19:53:07.018Z,100.00
2022-10-21T19:55:28.510Z,100.00
2022-10-21T19:57:49.977Z,100.00
2022-10-21T20:00:12.060Z,100.00
2022-10-21T20:02:33.543Z,100.00
2022-10-21T20:04:55.037Z,100.00
2022-10-21T20:07:16.544Z,100.00
2022-10-21T20:09:38.985Z,100.00
2022-10-21T20:12:00.574Z,100.00
2022-10-21T20:14:22.058Z,100.00
2022-10-21T20:16:43.594Z,100.00
2022-10-21T20:19:06.697Z,100.00
2022-10-21T20:21:29.708Z,100.00
2022-10-21T20:23:51.566Z,100.00
2022-10-21T20:26:13.049Z,100.00
2022-10-21T20:28:34.973Z,100.00
2022-10-21T20:31:05.020Z,100.00
2022-10-21T20:33:28.316Z,100.00
2022-10-21T20:35:49.772Z,100.00
2022-10-21T20:38:11.296Z,100.00
2022-10-21T20:40:32.812Z,100.00
2022-10-21T20:42:54.302Z,100.00
2022-10-21T20:45:15.930Z,100.00
2022-10-21T20:47:37.452Z,100.00
2022-10-21T20:49:58.908Z,100.00
2022-10-21T20:52:20.454Z,100.00
2022-10-21T20:54:41.914Z,100.00
2022-10-21T20:57:03.483Z,100.00
2022-10-21T20:59:25.046Z,100.00
2022-10-21T21:01:47.523Z,100.00
2022-10-21T21:04:12.048Z,100.00
2022-10-21T21:06:47.429Z,100.00
2022-10-21T21:11:51.250Z,100.00
2022-10-21T21:14:13.176Z,100.00
2022-10-21T21:16:34.633Z,100.00
2022-10-21T21:18:58.484Z,100.00
2022-10-21T21:21:21.606Z,100.00
2022-10-21T21:23:44.218Z,100.00
2022-10-21T21:26:08.399Z,100.00
2022-10-21T21:28:33.959Z,100.00
2022-10-21T21:30:57.168Z,100.00
2022-10-21T21:33:18.661Z,100.00
2022-10-21T21:35:40.155Z,100.00
2022-10-21T21:38:01.652Z,100.00
2022-10-21T21:40:23.130Z,100.00
2022-10-21T21:42:44.652Z,100.00
2022-10-21T21:45:06.792Z,100.00
2022-10-21T21:47:28.291Z,100.00
2022-10-21T21:49:49.800Z,100.00
2022-10-21T21:52:11.271Z,100.00
2022-10-21T21:54:32.757Z,100.00
2022-10-21T21:57:00.649Z,100.00
2022-10-21T21:59:35.706Z,100.00
2022-10-21T22:01:57.188Z,100.00
2022-10-21T22:04:18.689Z,100.00
2022-10-21T22:06:40.272Z,100.00
2022-10-21T22:09:03.457Z,100.00
2022-10-21T22:11:28.458Z,100.00
2022-10-21T22:13:50.160Z,100.00
2022-10-21T22:16:13.353Z,100.00
2022-10-21T22:18:35.189Z,100.00
2022-10-21T22:21:01.487Z,100.00
2022-10-21T22:23:22.998Z,100.00
2022-10-21T22:25:44.465Z,100.00
2022-10-21T22:28:06.057Z,100.00
2022-10-21T22:30:27.558Z,100.00
2022-10-21T22:32:49.035Z,100.00
2022-10-21T22:35:11.264Z,100.00
2022-10-21T22:37:32.761Z,100.00
2022-10-21T22:39:54.243Z,100.00
2022-10-21T22:42:16.025Z,100.00
2022-10-21T22:44:37.533Z,100.00
2022-10-21T22:46:59.111Z,100.00
2022-10-21T22:49:20.686Z,100.00
2022-10-21T22:51:42.282Z,100.00
2022-10-21T22:54:05.756Z,99.33
2022-10-21T22:56:33.231Z,99.48
2022-10-21T22:58:54.786Z,100.00
2022-10-21T23:01:16.338Z,100.00
2022-10-21T23:03:37.806Z,100.00
2022-10-21T23:05:59.298Z,99.52
2022-10-21T23:08:21.145Z,99.74
2022-10-21T23:10:42.871Z,100.00
2022-10-21T23:13:05.984Z,100.00
2022-10-21T23:15:27.544Z,100.00
2022-10-21T23:17:49.139Z,100.00
2022-10-21T23:20:11.414Z,100.00
2022-10-21T23:22:32.966Z,100.00
2022-10-21T23:24:54.468Z,100.00
2022-10-21T23:27:16.376Z,99.70
2022-10-21T23:29:37.975Z,98.97
2022-10-21T23:31:59.574Z,98.61
2022-10-21T23:34:21.079Z,99.03
2022-10-21T23:36:42.587Z,99.31
2022-10-21T23:39:04.337Z,99.62
2022-10-21T23:41:25.849Z,99.56
2022-10-21T23:43:47.349Z,99.73
2022-10-21T23:46:08.875Z,100.00
2022-10-21T23:48:30.334Z,100.00
2022-10-21T23:50:51.849Z,100.00
2022-10-21T23:53:13.328Z,100.00
2022-10-21T23:55:35.027Z,100.00
2022-10-21T23:57:57.479Z,100.00
